Time;durP1;ratioP1;P1;durP2;ratioP2;P2;SDS_P1;SDS_P2;PMS_P1;PMS_P2;Temp;Humidity;BMP_temperature;BMP_pressure;BME280_temperature;BME280_humidity;BME280_pressure;Samples;Min_cycle;Max_cycle;Signal;HPM_P1;HPM_P2
2024/01/19 00:01:40;;;;;;;17.80;9.63;;;-0.90;99.90;;;-1.18;96.79;100354.06;4845963;28;24877;-64
2024/01/19 00:04:01;;;;;;;19.58;9.95;;;-0.90;99.90;;;-1.13;96.67;100359.06;4827875;28;24478;-64
2024/01/19 00:06:23;;;;;;;21.27;10.15;;;-0.80;99.90;;;-1.11;96.91;100360.66;4843597;28;24539;-64
2024/01/19 00:08:46;;;;;;;19.80;10.13;;;-0.80;99.90;;;-1.14;96.72;100363.34;4851809;28;24894;-63
2024/01/19 00:11:15;;;;;;;23.13;11.38;;;-0.80;99.90;;;-1.15;97.42;100368.50;4845145;28;24999;-64
2024/01/19 00:13:37;;;;;;;21.53;11.10;;;-0.80;99.90;;;-1.12;97.19;100368.41;4839804;28;24429;-64
2024/01/19 00:15:59;;;;;;;23.20;11.80;;;-0.80;99.90;;;-1.09;97.08;100369.19;4852265;28;24444;-65
2024/01/19 00:18:24;;;;;;;24.73;12.30;;;-0.80;99.90;;;-1.04;97.83;100371.56;4849576;28;24468;-64
2024/01/19 00:20:47;;;;;;;23.15;12.15;;;-0.70;99.90;;;-0.97;97.39;100373.09;4854130;28;24432;-64
2024/01/19 00:23:08;;;;;;;27.92;12.50;;;-0.70;99.90;;;-0.89;97.89;100376.25;4850393;28;24451;-64
2024/01/19 00:25:30;;;;;;;23.55;12.25;;;-0.60;99.90;;;-0.81;97.89;100376.91;4828741;28;24464;-64
2024/01/19 00:27:52;;;;;;;24.15;12.65;;;-0.50;99.90;;;-0.81;97.65;100379.44;4854449;28;24969;-64
2024/01/19 00:30:14;;;;;;;25.27;12.38;;;-0.50;99.90;;;-0.75;97.21;100388.66;4854270;28;25180;-64
2024/01/19 00:32:36;;;;;;;23.20;12.18;;;-0.50;99.90;;;-0.73;97.46;100384.34;4845824;28;24444;-64
2024/01/19 00:34:58;;;;;;;20.17;11.18;;;-0.40;99.90;;;-0.73;97.08;100385.19;4850064;28;24456;-64
2024/01/19 00:37:20;;;;;;;20.73;11.55;;;-0.40;99.90;;;-0.71;96.56;100391.09;4842298;28;24437;-64
2024/01/19 00:39:42;;;;;;;20.20;11.77;;;-0.40;99.90;;;-0.68;96.68;100396.13;4848675;28;24471;-63
2024/01/19 00:42:04;;;;;;;25.08;12.07;;;-0.40;99.90;;;-0.65;96.73;100401.16;4841495;28;24535;-64
2024/01/19 00:44:26;;;;;;;19.70;10.85;;;-0.40;99.90;;;-0.60;96.59;100403.59;4847442;28;24554;-64
2024/01/19 00:46:49;;;;;;;22.42;11.20;;;-0.30;99.90;;;-0.58;96.42;100404.38;4823848;28;24444;-63
2024/01/19 00:49:11;;;;;;;21.10;11.00;;;-0.30;99.90;;;-0.64;96.14;100405.41;4849009;28;24432;-64
2024/01/19 00:51:33;;;;;;;22.15;11.48;;;-0.30;99.90;;;-0.63;95.76;100401.09;4847365;28;24507;-64
2024/01/19 00:53:55;;;;;;;20.55;10.73;;;-0.30;99.90;;;-0.61;95.53;100413.00;4836701;28;24447;-64
2024/01/19 00:56:17;;;;;;;22.60;11.23;;;-0.30;99.90;;;-0.62;95.21;100413.03;4849499;28;24992;-65
2024/01/19 00:58:42;;;;;;;24.55;11.20;;;-0.30;99.90;;;-0.64;95.41;100409.69;4849681;28;24520;-64
2024/01/19 01:01:04;;;;;;;19.88;10.68;;;-0.30;99.90;;;-0.61;95.32;100410.44;4845536;28;24452;-64
2024/01/19 01:03:29;;;;;;;23.50;11.15;;;-0.30;99.90;;;-0.58;95.17;100418.03;4808570;28;24477;-62
2024/01/19 01:05:59;;;;;;;19.30;10.60;;;-0.30;99.90;;;-0.58;95.25;100412.91;4835016;28;24548;-64
2024/01/19 01:08:23;;;;;;;23.70;11.57;;;-0.30;99.90;;;-0.57;95.52;100418.84;4831619;28;24447;-66
2024/01/19 01:10:45;;;;;;;21.50;11.05;;;-0.30;99.90;;;-0.55;95.00;100427.31;4842663;28;24446;-63
2024/01/19 01:13:07;;;;;;;22.33;10.98;;;-0.30;99.90;;;-0.59;95.13;100424.03;4849815;28;24440;-64
2024/01/19 01:15:29;;;;;;;20.95;10.88;;;-0.30;99.90;;;-0.62;95.78;100426.69;4855032;28;24489;-63
2024/01/19 01:17:51;;;;;;;21.90;10.37;;;-0.30;99.90;;;-0.64;95.19;100425.91;4843345;28;24660;-63
2024/01/19 01:20:15;;;;;;;20.83;10.30;;;-0.30;99.90;;;-0.65;95.54;100429.34;4841939;28;25002;-64
2024/01/19 01:22:37;;;;;;;22.05;10.50;;;-0.30;99.90;;;-0.69;95.19;100440.56;4825011;28;25071;-63
2024/01/19 01:25:00;;;;;;;16.67;9.85;;;-0.30;99.90;;;-0.74;95.16;100455.22;4848798;28;25011;-64
2024/01/19 01:27:21;;;;;;;18.17;9.90;;;-0.40;99.90;;;-0.77;94.74;100457.88;4849293;28;24531;-64
2024/01/19 01:29:43;;;;;;;18.75;10.18;;;-0.40;99.90;;;-0.80;94.45;100460.53;4847897;28;24529;-64
2024/01/19 01:32:05;;;;;;;17.42;9.10;;;-0.50;99.90;;;-0.88;94.65;100463.31;4850705;28;24525;-62
2024/01/19 01:34:27;;;;;;;17.08;9.65;;;-0.50;99.90;;;-0.92;94.70;100466.84;4850147;28;24522;-63
2024/01/19 01:36:49;;;;;;;16.60;9.30;;;-0.60;99.90;;;-0.97;94.46;100465.28;4821912;28;25105;-62
2024/01/19 01:39:12;;;;;;;20.50;10.32;;;-0.60;99.90;;;-0.97;95.36;100472.97;4821433;28;24503;-64
2024/01/19 01:41:41;;;;;;;18.85;10.15;;;-0.70;99.90;;;-1.00;94.71;100473.06;4811753;28;24511;-64
2024/01/19 01:44:04;;;;;;;16.45;9.60;;;-0.70;99.90;;;-1.00;94.74;100480.75;4814087;28;24497;-64
2024/01/19 01:46:26;;;;;;;20.73;10.75;;;-0.70;99.90;;;-1.00;95.53;100485.88;4824893;28;25049;-64
2024/01/19 01:48:48;;;;;;;19.48;10.63;;;-0.70;99.90;;;-1.02;95.30;100487.59;4851223;28;24431;-64
2024/01/19 01:51:13;;;;;;;18.73;10.18;;;-0.70;99.90;;;-1.02;94.97;100498.69;4836367;28;24436;-63
2024/01/19 01:53:36;;;;;;;17.50;10.18;;;-0.70;99.90;;;-1.03;95.20;100507.28;4841571;28;24436;-64
2024/01/19 01:55:58;;;;;;;18.83;10.40;;;-0.70;99.90;;;-1.03;95.14;100509.81;4845474;28;24431;-64
2024/01/19 01:58:20;;;;;;;19.23;9.77;;;-0.70;99.90;;;-1.05;94.72;100509.03;4840844;28;24594;-64
2024/01/19 02:00:43;;;;;;;18.35;10.00;;;-0.80;99.90;;;-1.01;94.58;100520.03;4847159;28;24451;-65
2024/01/19 02:03:06;;;;;;;20.33;10.02;;;-0.80;99.90;;;-1.04;94.65;100520.09;4828002;28;24562;-64
2024/01/19 02:05:28;;;;;;;20.70;10.27;;;-0.70;99.90;;;-1.04;95.22;100520.09;4846248;28;24853;-65
2024/01/19 02:07:50;;;;;;;17.30;9.82;;;-0.70;99.90;;;-1.03;94.80;100527.75;4841963;28;24533;-64
2024/01/19 02:10:12;;;;;;;19.65;10.38;;;-0.70;99.90;;;-1.07;94.51;100528.72;4845294;28;24471;-64
2024/01/19 02:12:34;;;;;;;20.63;10.20;;;-0.80;99.90;;;-1.03;94.73;100527.75;4840655;28;24547;-64
2024/01/19 02:14:57;;;;;;;19.50;11.38;;;-0.80;99.90;;;-1.00;94.49;100534.53;4816033;28;24523;-64
2024/01/19 02:17:19;;;;;;;21.80;11.70;;;-0.70;99.90;;;-1.02;94.34;100539.66;4852442;28;24459;-64
2024/01/19 02:19:41;;;;;;;21.35;11.30;;;-0.70;99.90;;;-0.98;94.58;100540.44;4839819;28;24498;-64
2024/01/19 02:22:03;;;;;;;21.02;10.80;;;-0.70;99.90;;;-0.96;94.33;100543.81;4844170;28;24456;-65
2024/01/19 02:24:26;;;;;;;21.45;10.80;;;-0.70;99.90;;;-0.93;94.91;100539.44;4838749;28;24478;-65
2024/01/19 02:26:48;;;;;;;24.00;11.50;;;-0.70;99.90;;;-0.92;94.18;100545.41;4820212;28;24439;-65
2024/01/19 02:29:10;;;;;;;22.70;11.65;;;-0.60;99.90;;;-0.96;93.96;100539.50;4845073;28;24438;-63
2024/01/19 02:31:32;;;;;;;21.92;11.40;;;-0.70;99.90;;;-0.94;94.71;100547.16;4844891;28;24535;-64
2024/01/19 02:33:54;;;;;;;22.08;11.50;;;-0.70;99.90;;;-0.98;94.08;100546.38;4844899;28;24528;-65
2024/01/19 02:36:16;;;;;;;22.23;11.55;;;-0.70;99.90;;;-0.99;94.64;100549.00;4845283;28;24547;-64
2024/01/19 02:38:37;;;;;;;26.80;12.52;;;-0.70;99.90;;;-1.02;94.57;100551.63;4840356;28;24894;-64
2024/01/19 02:40:59;;;;;;;23.93;12.10;;;-0.70;99.90;;;-1.02;94.56;100560.16;4853422;28;24462;-65
2024/01/19 02:43:21;;;;;;;25.52;12.27;;;-0.70;99.90;;;-1.05;94.36;100557.69;4854171;28;24539;-65
2024/01/19 02:45:43;;;;;;;29.20;13.80;;;-0.70;99.90;;;-1.06;95.15;100555.97;4832056;28;24486;-65
2024/01/19 02:48:05;;;;;;;26.90;12.68;;;-0.70;99.90;;;-1.05;95.57;100555.13;4854426;28;24523;-64
2024/01/19 02:50:27;;;;;;;23.38;12.30;;;-0.70;99.90;;;-1.01;95.23;100558.44;4852922;28;24436;-66
2024/01/19 02:52:49;;;;;;;20.75;10.85;;;-0.70;99.90;;;-1.02;95.28;100555.03;4841490;28;24432;-64
2024/01/19 02:55:11;;;;;;;20.80;10.95;;;-0.70;99.90;;;-1.04;94.95;100553.38;4839553;28;24747;-65
2024/01/19 02:57:33;;;;;;;21.13;11.40;;;-0.70;99.90;;;-1.05;94.85;100551.72;4841387;28;25027;-64
2024/01/19 02:59:55;;;;;;;19.33;11.25;;;-0.70;99.90;;;-1.10;94.99;100561.22;4832039;28;25048;-65
2024/01/19 03:02:17;;;;;;;21.58;10.40;;;-0.70;99.90;;;-1.13;94.96;100561.31;4820785;28;24872;-64
2024/01/19 03:04:39;;;;;;;19.50;9.95;;;-0.80;99.90;;;-1.15;95.39;100560.50;4842164;28;24452;-65
2024/01/19 03:07:01;;;;;;;18.98;9.73;;;-0.80;99.90;;;-1.17;95.24;100562.28;4844167;28;24428;-64
2024/01/19 03:09:23;;;;;;;18.58;10.40;;;-0.80;99.90;;;-1.20;94.87;100580.25;4846314;28;24466;-65
2024/01/19 03:11:45;;;;;;;19.75;10.38;;;-0.80;99.90;;;-1.26;94.65;100573.59;4849766;28;24539;-64
2024/01/19 03:14:07;;;;;;;18.85;10.43;;;-0.90;99.90;;;-1.36;94.25;100577.22;4838921;28;24435;-64
2024/01/19 03:16:28;;;;;;;20.90;10.40;;;-1.00;99.90;;;-1.46;93.69;100582.59;4836591;28;24829;-63
2024/01/19 03:18:54;;;;;;;20.07;10.77;;;-1.10;99.90;;;-1.53;94.09;100581.91;4851979;28;24519;-64
2024/01/19 03:21:16;;;;;;;18.63;10.15;;;-1.20;99.90;;;-1.58;94.04;100584.56;4838375;28;25014;-64
2024/01/19 03:23:38;;;;;;;22.10;10.55;;;-1.20;99.90;;;-1.61;93.71;100594.91;4856543;28;24484;-65
2024/01/19 03:26:01;;;;;;;18.75;10.45;;;-1.20;99.90;;;-1.65;93.90;100595.84;4854789;28;24501;-64
2024/01/19 03:28:23;;;;;;;21.63;10.43;;;-1.30;99.90;;;-1.66;94.31;100599.25;4852009;28;24507;-65
2024/01/19 03:30:45;;;;;;;18.98;9.80;;;-1.30;99.90;;;-1.68;94.53;100593.34;4851200;28;24890;-64
2024/01/19 03:33:07;;;;;;;17.80;9.70;;;-1.30;99.90;;;-1.73;93.81;100597.75;4829316;28;24579;-64
2024/01/19 03:35:29;;;;;;;18.83;10.10;;;-1.30;99.90;;;-1.75;93.77;100599.50;4825512;28;24878;-64
2024/01/19 03:37:51;;;;;;;19.67;10.27;;;-1.40;99.90;;;-1.76;94.56;100604.63;4841774;28;24455;-63
2024/01/19 03:40:13;;;;;;;18.35;9.85;;;-1.40;99.90;;;-1.77;94.09;100601.22;4836387;28;24525;-65
2024/01/19 03:42:34;;;;;;;16.90;9.50;;;-1.40;99.90;;;-1.77;93.85;100592.72;4855573;28;24490;-65
2024/01/19 03:44:56;;;;;;;19.23;9.65;;;-1.40;99.90;;;-1.82;94.84;100603.06;4835007;28;24485;-64
2024/01/19 03:47:18;;;;;;;22.92;11.02;;;-1.40;99.90;;;-1.85;94.36;100597.16;4857063;28;24482;-65
2024/01/19 03:49:40;;;;;;;18.92;10.10;;;-1.50;99.90;;;-1.89;94.97;100600.66;4836825;28;24471;-64
2024/01/19 03:52:08;;;;;;;19.75;9.32;;;-1.50;99.90;;;-1.91;94.22;100602.41;4843486;28;24447;-64
2024/01/19 03:54:32;;;;;;;15.98;9.15;;;-1.50;99.90;;;-1.93;95.01;100606.69;4851437;28;24528;-65
2024/01/19 03:56:58;;;;;;;18.88;10.13;;;-1.50;99.90;;;-1.92;94.22;100608.41;4846341;28;25090;-64
2024/01/19 03:59:20;;;;;;;15.13;8.63;;;-1.50;99.90;;;-1.95;94.48;100613.56;4833917;28;24501;-65
2024/01/19 04:01:42;;;;;;;17.90;9.30;;;-1.50;99.90;;;-2.02;94.26;100615.41;4839057;28;24444;-65
2024/01/19 04:04:04;;;;;;;19.67;10.02;;;-1.60;99.90;;;-2.06;94.71;100612.94;4836815;28;24454;-65
2024/01/19 04:06:26;;;;;;;17.65;8.90;;;-1.60;99.90;;;-2.09;95.10;100615.59;4849621;28;24448;-64
2024/01/19 04:08:48;;;;;;;17.60;9.73;;;-1.70;99.90;;;-2.12;95.06;100615.63;4844934;28;24455;-64
2024/01/19 04:11:10;;;;;;;18.42;9.40;;;-1.70;99.90;;;-2.15;94.49;100613.97;4848053;28;24522;-65
2024/01/19 04:13:32;;;;;;;19.27;9.40;;;-1.70;99.90;;;-2.18;94.69;100621.72;4852009;28;24446;-64
2024/01/19 04:15:54;;;;;;;19.25;9.90;;;-1.80;99.90;;;-2.20;94.76;100615.81;4857095;28;24523;-65
2024/01/19 04:18:16;;;;;;;20.08;9.80;;;-1.80;99.90;;;-2.22;95.79;100620.09;4833771;28;24458;-65
2024/01/19 04:20:38;;;;;;;19.63;9.48;;;-1.80;99.90;;;-2.26;95.28;100628.72;4852765;28;24434;-64
2024/01/19 04:23:00;;;;;;;19.92;10.63;;;-1.80;99.90;;;-2.29;95.93;100630.47;4827706;28;24998;-65
2024/01/19 04:25:22;;;;;;;18.13;10.45;;;-1.80;99.90;;;-2.32;96.14;100633.91;4835822;28;24482;-62
2024/01/19 04:27:44;;;;;;;21.00;11.03;;;-1.90;99.90;;;-2.33;97.43;100632.25;4855492;28;24452;-64
2024/01/19 04:30:06;;;;;;;19.95;11.02;;;-1.90;99.90;;;-2.33;97.28;100634.81;4831049;28;24429;-65
2024/01/19 04:32:28;;;;;;;23.00;11.35;;;-1.90;99.90;;;-2.30;97.19;100644.13;4834763;28;24449;-65
2024/01/19 04:34:50;;;;;;;19.88;10.85;;;-1.90;99.90;;;-2.34;97.45;100643.34;4827063;28;24520;-64
2024/01/19 04:37:12;;;;;;;21.75;10.90;;;-1.90;99.90;;;-2.36;97.46;100643.38;4851907;28;24447;-64
2024/01/19 04:39:34;;;;;;;18.20;10.40;;;-1.90;99.90;;;-2.34;97.65;100645.88;4848926;28;25288;-64
2024/01/19 04:41:56;;;;;;;16.03;9.17;;;-1.90;99.90;;;-2.32;97.64;100651.81;4833497;28;24517;-65
2024/01/19 04:44:18;;;;;;;17.75;9.90;;;-1.90;99.90;;;-2.30;97.72;100660.31;4846773;28;24487;-64
2024/01/19 04:46:40;;;;;;;19.65;10.32;;;-1.90;99.90;;;-2.31;96.73;100652.66;4849306;28;24430;-65
2024/01/19 04:49:03;;;;;;;17.85;9.80;;;-1.90;99.90;;;-2.31;97.03;100660.31;4854379;28;25059;-64
2024/01/19 04:51:25;;;;;;;21.20;10.20;;;-1.90;99.90;;;-2.35;97.05;100651.88;4855197;28;25168;-64
2024/01/19 04:53:47;;;;;;;20.40;10.20;;;-1.90;99.90;;;-2.41;96.56;100654.56;4855893;28;25168;-64
2024/01/19 04:56:09;;;;;;;17.77;10.33;;;-2.00;99.90;;;-2.46;95.72;100654.66;4854559;28;24953;-64
2024/01/19 04:58:32;;;;;;;21.75;10.73;;;-2.00;99.90;;;-2.49;95.54;100661.50;4836068;28;25009;-63
2024/01/19 05:00:54;;;;;;;18.23;10.23;;;-2.10;99.90;;;-2.52;95.57;100653.91;4845644;28;24517;-63
2024/01/19 05:03:17;;;;;;;20.10;10.60;;;-2.10;99.90;;;-2.55;94.99;100662.47;4845414;28;24454;-64
2024/01/19 05:05:39;;;;;;;19.25;10.90;;;-2.10;99.90;;;-2.55;95.00;100671.84;4855405;28;24474;-64
2024/01/19 05:08:01;;;;;;;19.65;11.00;;;-2.10;99.90;;;-2.56;95.01;100675.28;4854108;28;24840;-64
2024/01/19 05:10:23;;;;;;;19.15;10.10;;;-2.20;99.90;;;-2.54;95.11;100681.19;4849653;28;24432;-63
2024/01/19 05:12:44;;;;;;;17.85;10.00;;;-2.20;99.90;;;-2.53;94.78;100676.06;4848419;28;20781;-64
2024/01/19 05:15:07;;;;;;;21.63;10.38;;;-2.10;99.90;;;-2.54;94.68;100681.19;4855676;28;24552;-65
2024/01/19 05:17:29;;;;;;;18.05;10.23;;;-2.10;99.90;;;-2.55;94.48;100682.06;4832869;28;24549;-64
2024/01/19 05:19:51;;;;;;;21.65;10.55;;;-2.10;99.90;;;-2.58;94.00;100692.34;4853222;28;24427;-65
2024/01/19 05:22:13;;;;;;;18.60;9.80;;;-2.20;99.90;;;-2.59;94.00;100695.75;4829572;28;24428;-65
2024/01/19 05:24:40;;;;;;;16.73;9.15;;;-2.20;99.90;;;-2.67;94.37;100693.34;4826774;28;24518;-65
2024/01/19 05:27:02;;;;;;;17.70;9.68;;;-2.20;99.90;;;-2.68;93.44;100701.00;4830172;28;24536;-63
2024/01/19 05:29:24;;;;;;;15.02;9.10;;;-2.30;99.90;;;-2.71;94.20;100698.53;4833100;28;24841;-64
2024/01/19 05:31:46;;;;;;;18.33;9.15;;;-2.30;99.90;;;-2.76;93.93;100695.19;4846273;28;24444;-65
2024/01/19 05:34:08;;;;;;;17.48;9.05;;;-2.30;99.90;;;-2.83;94.35;100708.97;4834691;28;25069;-64
2024/01/19 05:36:30;;;;;;;12.73;8.10;;;-2.30;99.90;;;-2.85;94.71;100711.50;4838915;28;24428;-63
2024/01/19 05:38:52;;;;;;;15.70;8.90;;;-2.40;99.90;;;-2.84;94.94;100712.38;4844999;28;24436;-64
2024/01/19 05:41:21;;;;;;;19.87;10.30;;;-2.40;99.90;;;-2.86;95.41;100717.50;4829634;28;24510;-64
2024/01/19 05:43:43;;;;;;;20.50;9.90;;;-2.40;99.90;;;-2.88;96.00;100724.34;4833150;28;24484;-64
2024/01/19 05:46:05;;;;;;;19.43;10.30;;;-2.40;99.90;;;-2.91;96.65;100720.97;4835044;28;24523;-64
2024/01/19 05:48:27;;;;;;;19.20;10.20;;;-2.40;99.90;;;-2.91;96.29;100724.38;4832640;28;24441;-63
2024/01/19 05:50:49;;;;;;;18.65;9.90;;;-2.50;99.90;;;-2.92;96.33;100732.06;4836572;28;24428;-65
2024/01/19 05:53:11;;;;;;;18.17;10.18;;;-2.50;99.90;;;-2.88;97.00;100732.00;4844157;28;24455;-63
2024/01/19 05:55:33;;;;;;;19.65;9.77;;;-2.40;99.90;;;-2.85;96.88;100739.59;4827996;28;24878;-62
2024/01/19 05:57:55;;;;;;;16.85;9.23;;;-2.40;99.90;;;-2.84;96.39;100736.19;4834368;28;24539;-64
2024/01/19 06:00:17;;;;;;;20.27;9.88;;;-2.40;99.90;;;-2.84;96.32;100746.41;4837902;28;24447;-62
2024/01/19 06:02:39;;;;;;;16.80;9.30;;;-2.40;99.90;;;-2.86;96.05;100748.16;4843792;28;24522;-62
2024/01/19 06:05:02;;;;;;;16.25;9.30;;;-2.40;99.90;;;-2.85;95.50;100754.06;4834085;28;24517;-63
2024/01/19 06:07:24;;;;;;;18.48;9.05;;;-2.40;99.90;;;-2.86;94.80;100765.16;4850820;28;24434;-63
2024/01/19 06:09:46;;;;;;;15.82;8.25;;;-2.40;99.90;;;-2.88;94.28;100769.44;4844769;28;24468;-64
2024/01/19 06:12:08;;;;;;;15.88;9.02;;;-2.40;99.90;;;-2.93;95.24;100769.53;4817444;28;24543;-64
2024/01/19 06:14:30;;;;;;;16.05;8.70;;;-2.50;99.90;;;-2.99;95.25;100766.22;4827834;28;24527;-64
2024/01/19 06:16:52;;;;;;;18.13;8.98;;;-2.50;99.90;;;-2.99;95.53;100778.97;4846027;28;24448;-63
2024/01/19 06:19:14;;;;;;;15.03;8.30;;;-2.50;99.90;;;-2.97;95.92;100767.88;4834322;28;24513;-63
2024/01/19 06:21:36;;;;;;;16.88;9.40;;;-2.50;99.90;;;-2.95;95.82;100773.81;4834523;28;24452;-64
2024/01/19 06:23:58;;;;;;;15.82;9.10;;;-2.50;99.90;;;-2.95;94.69;100781.47;4847807;28;24551;-64
2024/01/19 06:26:20;;;;;;;17.40;8.68;;;-2.50;99.90;;;-2.93;95.26;100778.88;4848541;28;25210;-64
2024/01/19 06:28:42;;;;;;;18.63;9.25;;;-2.50;99.90;;;-2.91;95.02;100795.00;4842491;28;24494;-62
2024/01/19 06:31:05;;;;;;;16.27;9.00;;;-2.50;99.90;;;-2.90;94.53;100802.69;4846993;28;24520;-64
2024/01/19 06:33:27;;;;;;;15.45;9.05;;;-2.50;99.90;;;-2.90;94.61;100799.28;4823506;28;24985;-63
2024/01/19 06:35:49;;;;;;;17.25;8.82;;;-2.50;99.90;;;-2.91;94.21;100811.19;4828399;28;24607;-64
2024/01/19 06:38:11;;;;;;;15.80;8.95;;;-2.50;99.90;;;-2.94;93.30;100805.28;4847480;28;24977;-64
2024/01/19 06:40:33;;;;;;;16.23;8.73;;;-2.50;99.90;;;-2.98;93.03;100813.88;4835585;28;24491;-62
2024/01/19 06:42:55;;;;;;;15.98;8.77;;;-2.50;99.90;;;-3.02;92.42;100820.69;4825556;28;24528;-61
2024/01/19 06:45:21;;;;;;;13.48;7.82;;;-2.60;99.90;;;-3.06;92.40;100823.31;4849833;28;24452;-64
2024/01/19 06:47:43;;;;;;;14.48;8.43;;;-2.60;99.90;;;-3.08;92.89;100832.69;4832081;28;24452;-64
2024/01/19 06:50:06;;;;;;;15.52;8.75;;;-2.70;99.90;;;-3.12;91.74;100839.56;4852144;28;24506;-64
2024/01/19 06:52:28;;;;;;;15.15;8.77;;;-2.70;99.90;;;-3.16;91.87;100846.44;4829256;28;24915;-64
2024/01/19 06:54:50;;;;;;;16.42;9.10;;;-2.70;99.90;;;-3.20;92.26;100841.38;4851008;28;24467;-64
2024/01/19 06:57:12;;;;;;;18.63;8.88;;;-2.80;99.90;;;-3.22;92.45;100845.66;4828481;28;24456;-64
2024/01/19 06:59:34;;;;;;;14.68;8.32;;;-2.80;99.90;;;-3.27;91.84;100848.25;4830019;28;24543;-64
2024/01/19 07:01:56;;;;;;;13.80;8.38;;;-2.80;99.90;;;-3.31;91.94;100844.06;4846939;28;24825;-64
2024/01/19 07:04:18;;;;;;;14.60;8.70;;;-2.90;99.90;;;-3.36;91.76;100855.16;4834975;28;24495;-64
2024/01/19 07:06:40;;;;;;;16.67;8.50;;;-2.90;99.90;;;-3.48;92.10;100860.41;4849328;28;24493;-62
2024/01/19 07:09:02;;;;;;;15.50;9.00;;;-3.00;99.90;;;-3.50;92.46;100872.34;4851331;28;25094;-64
2024/01/19 07:11:24;;;;;;;16.63;9.30;;;-3.00;99.90;;;-3.50;92.76;100877.44;4858575;28;24470;-63
2024/01/19 07:13:46;;;;;;;15.95;9.15;;;-3.00;99.90;;;-3.46;92.62;100884.19;4835285;28;24447;-63
2024/01/19 07:16:08;;;;;;;16.65;8.50;;;-3.00;99.90;;;-3.43;92.45;100882.44;4834463;28;24487;-63
2024/01/19 07:18:30;;;;;;;20.00;9.17;;;-3.00;99.90;;;-3.37;92.57;100894.31;4835307;28;24585;-63
2024/01/19 07:20:52;;;;;;;14.93;8.48;;;-3.00;99.90;;;-3.39;91.85;100890.94;4851246;28;24529;-62
2024/01/19 07:23:14;;;;;;;16.52;8.70;;;-2.90;99.90;;;-3.40;91.25;100892.63;4849488;28;24471;-64
2024/01/19 07:25:36;;;;;;;18.63;9.30;;;-3.00;99.90;;;-3.43;91.58;100897.75;4856639;28;24446;-64
2024/01/19 07:27:58;;;;;;;16.23;8.80;;;-3.00;99.90;;;-3.39;91.17;100902.00;4853947;28;24527;-63
2024/01/19 07:30:20;;;;;;;15.43;9.00;;;-3.00;99.90;;;-3.38;90.37;100900.25;4854887;28;24450;-63
2024/01/19 07:32:42;;;;;;;15.98;8.45;;;-2.90;99.90;;;-3.39;89.70;100904.53;4850503;28;24444;-63
2024/01/19 07:35:24;;;;;;;13.10;7.75;;;-3.00;99.90;;;-3.42;88.86;100902.00;4840862;28;24424;-64
2024/01/19 07:37:46;;;;;;;17.00;8.77;;;-3.00;99.90;;;-3.42;88.84;100898.63;4844737;28;25052;-63
2024/01/19 07:40:08;;;;;;;16.80;8.90;;;-3.00;99.90;;;-3.40;89.15;100910.50;4856072;28;24535;-63
2024/01/19 07:42:30;;;;;;;17.58;8.63;;;-3.00;99.90;;;-3.45;88.94;100901.22;4854134;28;24458;-64
2024/01/19 07:44:52;;;;;;;15.88;8.95;;;-3.00;99.90;;;-3.47;88.23;100903.75;4855408;28;24537;-64
2024/01/19 07:47:14;;;;;;;18.02;9.63;;;-3.00;99.90;;;-3.52;88.36;100910.63;4853136;28;24440;-63
2024/01/19 07:49:36;;;;;;;16.80;9.13;;;-3.10;99.90;;;-3.46;88.89;100918.22;4853465;28;24527;-65
2024/01/19 07:51:58;;;;;;;22.60;10.43;;;-3.10;99.90;;;-3.37;89.14;100925.78;4836771;28;26018;-64
2024/01/19 07:54:20;;;;;;;16.55;9.52;;;-3.00;99.90;;;-3.24;89.65;100929.03;4850085;28;24527;-64
2024/01/19 07:56:43;;;;;;;23.73;11.55;;;-2.90;99.90;;;-3.08;88.70;100930.53;4849928;28;24911;-64
2024/01/19 07:59:05;;;;;;;24.73;11.30;;;-2.80;99.90;;;-2.88;88.47;100927.75;4843714;28;24451;-64
2024/01/19 08:01:27;;;;;;;23.70;11.00;;;-2.60;99.90;;;-2.48;88.57;100936.56;4851272;28;24981;-63
2024/01/19 08:03:48;;;;;;;24.17;12.13;;;-2.30;99.90;;;-1.76;88.14;100943.09;4817391;28;24555;-61
2024/01/19 08:06:11;;;;;;;28.15;13.57;;;-1.80;99.90;;;-0.87;84.86;100941.41;4854278;28;24435;-64
2024/01/19 08:08:33;;;;;;;25.05;13.77;;;-1.30;99.90;;;-0.02;80.98;100953.19;4844628;28;24451;-64
2024/01/19 08:10:55;;;;;;;24.55;12.93;;;-0.60;99.90;;;0.83;78.26;100951.03;4843722;28;24485;-63
2024/01/19 08:13:17;;;;;;;25.35;13.35;;;0.10;99.90;;;1.64;75.17;100952.91;4843605;28;25259;-63
2024/01/19 08:15:39;;;;;;;25.30;13.27;;;0.80;99.90;;;2.84;71.87;100958.38;4833978;28;25142;-64
2024/01/19 08:18:01;;;;;;;24.63;13.10;;;1.80;99.90;;;3.99;67.34;100974.69;4841569;28;24475;-64
2024/01/19 08:20:24;;;;;;;22.02;12.00;;;2.80;99.90;;;4.98;63.53;100964.50;4830678;28;24523;-63
2024/01/19 08:22:46;;;;;;;20.02;11.50;;;3.70;99.90;;;5.79;60.87;100966.81;4840160;28;24538;-65
2024/01/19 08:25:09;;;;;;;24.02;13.07;;;4.50;99.90;;;6.53;58.18;100974.44;4828936;28;24555;-65
2024/01/19 08:27:31;;;;;;;24.38;13.98;;;5.30;99.90;;;7.43;55.32;100978.38;4837437;28;20822;-64
2024/01/19 08:29:53;;;;;;;27.38;14.90;;;6.20;99.90;;;8.34;53.11;100988.00;4846855;28;24498;-63
2024/01/19 08:32:15;;;;;;;30.45;15.75;;;6.90;99.90;;;9.40;49.52;100984.25;4848140;28;24896;-63
2024/01/19 08:34:37;;;;;;;27.90;15.60;;;7.80;99.90;;;10.68;46.31;100989.00;4845495;28;25028;-64
2024/01/19 08:36:59;;;;;;;29.13;15.70;;;8.90;99.90;;;12.12;43.82;100994.56;4852797;28;24432;-64
2024/01/19 08:39:21;;;;;;;28.23;16.45;;;10.20;99.70;;;13.22;40.29;100983.59;4856522;28;24510;-64
2024/01/19 08:41:44;;;;;;;28.02;16.55;;;11.30;96.30;;;14.23;39.00;100987.72;4854362;28;24438;-64
2024/01/19 08:44:06;;;;;;;30.35;16.80;;;12.30;93.90;;;15.14;37.06;100984.38;4828252;28;24455;-64
2024/01/19 08:46:28;;;;;;;28.63;17.13;;;13.20;91.20;;;15.93;34.59;100999.38;4853463;28;24509;-64
2024/01/19 08:48:50;;;;;;;28.98;17.20;;;13.90;86.10;;;16.71;34.64;101004.59;4855281;28;24965;-65
2024/01/19 08:51:20;;;;;;;28.05;16.80;;;14.70;83.80;;;17.48;32.89;101005.19;4848219;28;25747;-64
2024/01/19 08:53:42;;;;;;;30.00;16.80;;;15.40;79.40;;;18.25;31.65;101018.00;4855994;28;24523;-64
2024/01/19 08:56:04;;;;;;;26.70;16.38;;;16.10;75.20;;;19.23;30.47;101027.38;4855395;28;24424;-64
2024/01/19 08:58:27;;;;;;;31.10;18.15;;;16.90;72.10;;;19.94;29.33;101027.94;4845278;28;24821;-62
2024/01/19 09:00:49;;;;;;;25.75;17.20;;;17.70;68.50;;;20.63;28.35;101038.19;4847638;28;24972;-64
2024/01/19 09:03:11;;;;;;;28.15;17.40;;;18.40;66.50;;;21.14;27.54;101025.56;4839678;28;24438;-65
2024/01/19 09:05:34;;;;;;;30.08;18.10;;;18.90;63.30;;;21.51;27.25;101033.75;4840272;28;24554;-65
2024/01/19 09:07:56;;;;;;;27.77;17.90;;;19.30;61.30;;;21.57;26.40;101035.75;4853214;28;24849;-65
2024/01/19 09:10:18;;;;;;;28.35;18.30;;;19.50;59.20;;;21.47;26.89;101048.38;4836035;28;24424;-63
2024/01/19 09:12:40;;;;;;;28.17;18.58;;;19.50;58.30;;;21.30;27.48;101052.06;4853564;28;24489;-64
2024/01/19 09:15:03;;;;;;;26.90;18.03;;;19.40;58.50;;;21.36;27.17;101054.88;4853515;28;24439;-64
2024/01/19 09:17:26;;;;;;;29.30;18.45;;;19.30;57.50;;;20.77;27.32;101053.44;4849993;28;24813;-65
2024/01/19 09:19:48;;;;;;;28.63;16.85;;;19.00;57.30;;;20.19;27.84;101059.78;4855504;28;24431;-64
2024/01/19 09:22:10;;;;;;;27.35;17.23;;;18.50;57.70;;;18.30;29.97;101061.47;4833143;28;24501;-64
2024/01/19 09:24:32;;;;;;;25.70;16.95;;;17.40;58.50;;;15.24;34.04;101053.63;4846406;28;24506;-64
2024/01/19 09:26:54;;;;;;;24.48;15.38;;;15.20;60.80;;;12.62;38.04;101064.16;4813381;28;25060;-63
2024/01/19 09:29:16;;;;;;;29.47;16.17;;;12.90;64.70;;;10.48;42.25;101064.28;4826030;28;24529;-64
2024/01/19 09:31:46;;;;;;;26.98;15.93;;;11.00;68.70;;;8.69;46.45;101069.22;4849705;28;24528;-62
2024/01/19 09:34:08;;;;;;;24.73;14.60;;;9.20;73.40;;;7.16;50.28;101071.50;4820345;28;24438;-64
2024/01/19 09:36:30;;;;;;;26.40;15.00;;;7.70;77.60;;;5.64;54.92;101074.53;4850792;28;24449;-64
2024/01/19 09:38:52;;;;;;;31.02;15.50;;;6.40;83.90;;;4.90;58.21;101079.50;4841293;28;24434;-63
2024/01/19 09:42:09;;;;;;;25.30;13.93;;;5.40;90.70;;;4.26;61.73;101096.75;4852061;28;25057;-64
2024/01/19 09:44:37;;;;;;;23.00;13.15;;;4.70;95.80;;;4.08;63.99;101092.25;4831446;28;24511;-64